Weather at Pine Point Airfield

Public forecast

Using degrees Celsius for public forecast. Weather courtesy of forecast.io.

Closest aviation weather report (METAR) to Pine Point Airfield

Closest report is Oshawa Executive Airport, 14.0 nm (26.0 km) S.

2023/09/24 14:00 (retrieved 21 minutes ago)

CYOO 241400Z AUTO 05009KT 9SM CLR 20/08 A3013 RMK SLP204 DENSITY ALT 900FT

Closest aviation forecast (TAF) to Pine Point Airfield

Closest forecast is Oshawa Executive Airport, 14.0 nm (26.0 km) S.

2023/09/24 14:00 (retrieved 21 minutes ago)

TAF CYOO 241344Z 2414/2502 05008KT P6SM SKC BECMG 2416/2418 07012G22KT FM250000 07008KT P6SM BKN060 BECMG 2500/2502 04008KT RMK FCST BASED ON AUTO OBS NXT FCST BY 242000Z